sensor_id;sensor_type;location;lat;lon;timestamp;pressure;altitude;pressure_sealevel;temperature;humidity
75681;BME280;64294;49.176;16.626;2023-02-13T00:02:18;101392.94;;;3.36;92.68
75681;BME280;64294;49.176;16.626;2023-02-13T00:04:44;101387.41;;;3.36;92.99
75681;BME280;64294;49.176;16.626;2023-02-13T00:07:10;101384.69;;;3.32;93.37
75681;BME280;64294;49.176;16.626;2023-02-13T00:09:39;101384.44;;;3.26;93.24
75681;BME280;64294;49.176;16.626;2023-02-13T00:12:06;101380.44;;;3.27;93.33
75681;BME280;64294;49.176;16.626;2023-02-13T00:14:40;101380.19;;;3.38;93.13
75681;BME280;64294;49.176;16.626;2023-02-13T00:17:05;101381.41;;;3.21;93.96
75681;BME280;64294;49.176;16.626;2023-02-13T00:19:32;101374.22;;;3.23;93.77
75681;BME280;64294;49.176;16.626;2023-02-13T00:21:57;101382.88;;;3.25;93.66
75681;BME280;64294;49.176;16.626;2023-02-13T00:24:23;101379.22;;;3.28;93.61
75681;BME280;64294;49.176;16.626;2023-02-13T00:26:54;101382.34;;;3.30;93.50
75681;BME280;64294;49.176;16.626;2023-02-13T00:29:20;101384.44;;;3.26;93.60
75681;BME280;64294;49.176;16.626;2023-02-13T00:31:45;101382.34;;;3.30;93.67
75681;BME280;64294;49.176;16.626;2023-02-13T00:34:11;101370.78;;;3.32;93.83
75681;BME280;64294;49.176;16.626;2023-02-13T00:36:36;101381.31;;;3.24;93.64
75681;BME280;64294;49.176;16.626;2023-02-13T00:39:01;101387.56;;;3.28;93.45
75681;BME280;64294;49.176;16.626;2023-02-13T00:41:27;101379.56;;;3.30;93.89
75681;BME280;64294;49.176;16.626;2023-02-13T00:43:53;101386.88;;;3.24;94.12
75681;BME280;64294;49.176;16.626;2023-02-13T00:46:21;101403.00;;;3.29;93.94
75681;BME280;64294;49.176;16.626;2023-02-13T00:48:47;101404.34;;;3.25;94.18
75681;BME280;64294;49.176;16.626;2023-02-13T00:51:13;101413.78;;;3.27;94.09
75681;BME280;64294;49.176;16.626;2023-02-13T00:53:38;101406.25;;;3.12;94.83
75681;BME280;64294;49.176;16.626;2023-02-13T00:56:05;101413.66;;;3.18;94.35
75681;BME280;64294;49.176;16.626;2023-02-13T00:58:31;101412.78;;;3.21;94.42
75681;BME280;64294;49.176;16.626;2023-02-13T01:00:56;101409.72;;;3.16;94.42
75681;BME280;64294;49.176;16.626;2023-02-13T01:03:25;101408.53;;;3.17;94.50
75681;BME280;64294;49.176;16.626;2023-02-13T01:05:50;101407.31;;;3.18;94.09
75681;BME280;64294;49.176;16.626;2023-02-13T01:08:17;101412.94;;;3.14;94.05
75681;BME280;64294;49.176;16.626;2023-02-13T01:10:44;101404.88;;;3.20;94.03
75681;BME280;64294;49.176;16.626;2023-02-13T01:13:10;101410.94;;;3.15;94.16
75681;BME280;64294;49.176;16.626;2023-02-13T01:15:37;101396.44;;;3.23;94.00
75681;BME280;64294;49.176;16.626;2023-02-13T01:18:05;101396.25;;;3.14;94.20
75681;BME280;64294;49.176;16.626;2023-02-13T01:20:30;101393.13;;;3.12;94.38
75681;BME280;64294;49.176;16.626;2023-02-13T01:22:56;101387.06;;;3.17;94.54
75681;BME280;64294;49.176;16.626;2023-02-13T01:25:22;101388.69;;;3.15;94.41
75681;BME280;64294;49.176;16.626;2023-02-13T01:27:47;101388.63;;;3.18;94.15
75681;BME280;64294;49.176;16.626;2023-02-13T01:30:15;101378.03;;;3.13;94.18
75681;BME280;64294;49.176;16.626;2023-02-13T01:32:44;101387.25;;;3.10;94.47
75681;BME280;64294;49.176;16.626;2023-02-13T01:35:14;101381.16;;;3.15;94.25
75681;BME280;64294;49.176;16.626;2023-02-13T01:37:40;101381.59;;;3.14;94.26
75681;BME280;64294;49.176;16.626;2023-02-13T01:40:08;101377.34;;;3.09;94.41
75681;BME280;64294;49.176;16.626;2023-02-13T01:42:35;101382.03;;;3.12;94.42
75681;BME280;64294;49.176;16.626;2023-02-13T01:47:41;101365.69;;;3.14;94.08
75681;BME280;64294;49.176;16.626;2023-02-13T01:53:10;101365.69;;;3.14;94.01
75681;BME280;64294;49.176;16.626;2023-02-13T01:55:47;101364.91;;;3.14;93.96
75681;BME280;64294;49.176;16.626;2023-02-13T01:58:16;101351.47;;;3.12;94.05
75681;BME280;64294;49.176;16.626;2023-02-13T02:00:44;101352.59;;;3.15;93.93
75681;BME280;64294;49.176;16.626;2023-02-13T02:03:36;101358.75;;;3.22;93.76
75681;BME280;64294;49.176;16.626;2023-02-13T02:06:03;101355.19;;;3.22;93.90
75681;BME280;64294;49.176;16.626;2023-02-13T02:08:31;101357.44;;;3.27;93.54
75681;BME280;64294;49.176;16.626;2023-02-13T02:11:11;101347.09;;;3.27;93.63
75681;BME280;64294;49.176;16.626;2023-02-13T02:13:43;101350.41;;;3.22;93.83
75681;BME280;64294;49.176;16.626;2023-02-13T02:16:09;101351.97;;;3.23;93.56
75681;BME280;64294;49.176;16.626;2023-02-13T02:18:35;101356.50;;;3.17;94.30
75681;BME280;64294;49.176;16.626;2023-02-13T02:24:03;101353.22;;;3.06;94.58
75681;BME280;64294;49.176;16.626;2023-02-13T02:29:53;101350.44;;;3.06;94.39
75681;BME280;64294;49.176;16.626;2023-02-13T02:41:07;101345.75;;;3.03;94.53
75681;BME280;64294;49.176;16.626;2023-02-13T02:50:05;101350.19;;;3.00;95.23
75681;BME280;64294;49.176;16.626;2023-02-13T02:57:47;101346.97;;;3.02;95.79
75681;BME280;64294;49.176;16.626;2023-02-13T03:00:34;101346.00;;;3.09;95.29
75681;BME280;64294;49.176;16.626;2023-02-13T03:03:22;101343.66;;;3.07;95.42
75681;BME280;64294;49.176;16.626;2023-02-13T03:06:22;101339.88;;;3.01;96.12
75681;BME280;64294;49.176;16.626;2023-02-13T03:08:58;101339.88;;;3.01;95.88
75681;BME280;64294;49.176;16.626;2023-02-13T03:11:48;101331.09;;;3.02;95.93
75681;BME280;64294;49.176;16.626;2023-02-13T03:14:32;101342.09;;;3.06;95.59
75681;BME280;64294;49.176;16.626;2023-02-13T03:17:00;101340.66;;;3.01;95.87
75681;BME280;64294;49.176;16.626;2023-02-13T03:20:02;101343.31;;;3.05;96.15
75681;BME280;64294;49.176;16.626;2023-02-13T03:22:59;101341.09;;;3.00;96.34
75681;BME280;64294;49.176;16.626;2023-02-13T03:25:38;101340.66;;;3.01;96.08
75681;BME280;64294;49.176;16.626;2023-02-13T03:28:21;101341.75;;;3.04;96.08
75681;BME280;64294;49.176;16.626;2023-02-13T03:34:07;101344.97;;;3.02;96.05
75681;BME280;64294;49.176;16.626;2023-02-13T03:36:46;101355.56;;;3.08;95.80
75681;BME280;64294;49.176;16.626;2023-02-13T03:39:42;101351.47;;;3.12;95.92
75681;BME280;64294;49.176;16.626;2023-02-13T03:42:16;101344.34;;;3.11;95.85
75681;BME280;64294;49.176;16.626;2023-02-13T03:44:47;101345.47;;;3.14;95.79
75681;BME280;64294;49.176;16.626;2023-02-13T03:47:34;101335.56;;;3.13;95.91
75681;BME280;64294;49.176;16.626;2023-02-13T03:50:03;101332.34;;;3.14;95.88
75681;BME280;64294;49.176;16.626;2023-02-13T03:52:59;101328.34;;;3.15;96.16
75681;BME280;64294;49.176;16.626;2023-02-13T03:55:34;101334.69;;;3.16;96.08
75681;BME280;64294;49.176;16.626;2023-02-13T03:58:27;101327.41;;;3.22;96.16
75681;BME280;64294;49.176;16.626;2023-02-13T04:01:15;101329.75;;;3.23;96.50
75681;BME280;64294;49.176;16.626;2023-02-13T04:03:49;101325.66;;;3.28;96.73
75681;BME280;64294;49.176;16.626;2023-02-13T04:06:25;101325.66;;;3.28;97.06
75681;BME280;64294;49.176;16.626;2023-02-13T04:08:52;101322.75;;;3.31;96.90
75681;BME280;64294;49.176;16.626;2023-02-13T04:11:25;101323.53;;;3.32;97.15
75681;BME280;64294;49.176;16.626;2023-02-13T04:13:58;101328.66;;;3.33;97.01
75681;BME280;64294;49.176;16.626;2023-02-13T04:16:40;101324.66;;;3.34;97.01
75681;BME280;64294;49.176;16.626;2023-02-13T04:19:08;101324.59;;;3.38;96.82
75681;BME280;64294;49.176;16.626;2023-02-13T04:21:36;101327.38;;;3.38;97.11
75681;BME280;64294;49.176;16.626;2023-02-13T04:24:03;101326.94;;;3.40;96.76
75681;BME280;64294;49.176;16.626;2023-02-13T04:26:52;101323.81;;;3.38;96.92
75681;BME280;64294;49.176;16.626;2023-02-13T04:29:19;101322.59;;;3.39;96.90
75681;BME280;64294;49.176;16.626;2023-02-13T04:31:46;101320.59;;;3.39;96.89
75681;BME280;64294;49.176;16.626;2023-02-13T04:34:12;101321.25;;;3.43;96.84
75681;BME280;64294;49.176;16.626;2023-02-13T04:36:37;101331.59;;;3.43;96.81
75681;BME280;64294;49.176;16.626;2023-02-13T04:39:03;101326.03;;;3.43;97.13
75681;BME280;64294;49.176;16.626;2023-02-13T04:41:28;101335.25;;;3.40;97.36
75681;BME280;64294;49.176;16.626;2023-02-13T04:43:54;101332.81;;;3.42;97.08
75681;BME280;64294;49.176;16.626;2023-02-13T04:46:23;101335.59;;;3.42;97.07
75681;BME280;64294;49.176;16.626;2023-02-13T04:48:49;101335.50;;;3.45;97.67
75681;BME280;64294;49.176;16.626;2023-02-13T04:51:14;101343.59;;;3.40;97.89
75681;BME280;64294;49.176;16.626;2023-02-13T04:53:40;101331.59;;;3.43;98.29
75681;BME280;64294;49.176;16.626;2023-02-13T04:56:06;101346.72;;;3.42;97.76
75681;BME280;64294;49.176;16.626;2023-02-13T04:58:32;101337.94;;;3.43;98.10
75681;BME280;64294;49.176;16.626;2023-02-13T05:00:57;101331.72;;;3.39;98.15
75681;BME280;64294;49.176;16.626;2023-02-13T05:03:26;101332.22;;;3.34;98.95
75681;BME280;64294;49.176;16.626;2023-02-13T05:05:51;101336.38;;;3.42;98.81
75681;BME280;64294;49.176;16.626;2023-02-13T05:08:17;101324.81;;;3.44;98.45
75681;BME280;64294;49.176;16.626;2023-02-13T05:10:42;101329.03;;;3.36;99.08
75681;BME280;64294;49.176;16.626;2023-02-13T05:13:07;101333.00;;;3.34;99.29
75681;BME280;64294;49.176;16.626;2023-02-13T05:15:33;101331.94;;;3.45;98.75
75681;BME280;64294;49.176;16.626;2023-02-13T05:17:58;101338.03;;;3.40;98.96
75681;BME280;64294;49.176;16.626;2023-02-13T05:20:24;101339.38;;;3.35;99.22
75681;BME280;64294;49.176;16.626;2023-02-13T05:22:52;101332.66;;;3.32;99.46
75681;BME280;64294;49.176;16.626;2023-02-13T05:25:40;101334.31;;;3.30;99.92
75681;BME280;64294;49.176;16.626;2023-02-13T05:28:07;101336.75;;;3.28;100.00
75681;BME280;64294;49.176;16.626;2023-02-13T05:30:53;101345.34;;;3.33;100.00
75681;BME280;64294;49.176;16.626;2023-02-13T05:33:19;101342.56;;;3.33;100.00
75681;BME280;64294;49.176;16.626;2023-02-13T05:35:44;101342.72;;;3.43;100.00
75681;BME280;64294;49.176;16.626;2023-02-13T05:38:10;101343.13;;;3.57;100.00
75681;BME280;64294;49.176;16.626;2023-02-13T05:40:35;101348.22;;;3.59;100.00
75681;BME280;64294;49.176;16.626;2023-02-13T05:43:00;101341.44;;;3.60;100.00
75681;BME280;64294;49.176;16.626;2023-02-13T05:45:26;101345.78;;;3.61;100.00
75681;BME280;64294;49.176;16.626;2023-02-13T05:47:51;101341.78;;;3.62;100.00
75681;BME280;64294;49.176;16.626;2023-02-13T05:50:17;101342.91;;;3.64;100.00
75681;BME280;64294;49.176;16.626;2023-02-13T05:52:42;101342.91;;;3.64;100.00
75681;BME280;64294;49.176;16.626;2023-02-13T05:55:08;101351.47;;;3.70;100.00
75681;BME280;64294;49.176;16.626;2023-02-13T05:57:33;101344.34;;;3.69;100.00
75681;BME280;64294;49.176;16.626;2023-02-13T05:59:58;101346.78;;;3.67;99.83
75681;BME280;64294;49.176;16.626;2023-02-13T06:02:24;101358.69;;;3.68;100.00
75681;BME280;64294;49.176;16.626;2023-02-13T06:04:49;101360.06;;;3.76;99.69
75681;BME280;64294;49.176;16.626;2023-02-13T06:07:15;101353.03;;;3.71;99.38
75681;BME280;64294;49.176;16.626;2023-02-13T06:09:40;101348.03;;;3.66;99.85
75681;BME280;64294;49.176;16.626;2023-02-13T06:12:05;101357.25;;;3.63;99.66
75681;BME280;64294;49.176;16.626;2023-02-13T06:14:31;101361.91;;;3.66;99.80
75681;BME280;64294;49.176;16.626;2023-02-13T06:16:56;101353.25;;;3.64;99.99
75681;BME280;64294;49.176;16.626;2023-02-13T06:19:22;101361.47;;;3.68;99.92
75681;BME280;64294;49.176;16.626;2023-02-13T06:21:47;101362.25;;;3.68;99.84
75681;BME280;64294;49.176;16.626;2023-02-13T06:24:13;101372.16;;;3.69;99.62
75681;BME280;64294;49.176;16.626;2023-02-13T06:26:38;101368.69;;;3.65;99.90
75681;BME280;64294;49.176;16.626;2023-02-13T06:29:04;101366.38;;;3.63;100.00
75681;BME280;64294;49.176;16.626;2023-02-13T06:31:29;101374.59;;;3.67;99.60
75681;BME280;64294;49.176;16.626;2023-02-13T06:33:55;101371.03;;;3.67;99.68
75681;BME280;64294;49.176;16.626;2023-02-13T06:36:20;101365.03;;;3.68;99.65
75681;BME280;64294;49.176;16.626;2023-02-13T06:38:45;101369.81;;;3.68;99.54
75681;BME280;64294;49.176;16.626;2023-02-13T06:41:11;101369.72;;;3.71;99.64
75681;BME280;64294;49.176;16.626;2023-02-13T06:43:36;101373.19;;;3.75;99.61
75681;BME280;64294;49.176;16.626;2023-02-13T06:46:05;101367.19;;;3.77;99.58
75681;BME280;64294;49.176;16.626;2023-02-13T06:48:31;101369.88;;;3.80;99.00
75681;BME280;64294;49.176;16.626;2023-02-13T06:50:56;101369.88;;;3.80;99.01
75681;BME280;64294;49.176;16.626;2023-02-13T06:53:25;101363.19;;;3.78;98.88
75681;BME280;64294;49.176;16.626;2023-02-13T06:55:52;101364.75;;;3.79;98.75
75681;BME280;64294;49.176;16.626;2023-02-13T06:58:18;101367.88;;;3.81;98.52
75681;BME280;64294;49.176;16.626;2023-02-13T07:00:44;101369.44;;;3.82;98.48
75681;BME280;64294;49.176;16.626;2023-02-13T07:03:09;101368.44;;;3.88;98.57
75681;BME280;64294;49.176;16.626;2023-02-13T07:05:39;101373.91;;;3.92;98.00
75681;BME280;64294;49.176;16.626;2023-02-13T07:08:07;101366.69;;;3.94;97.91
75681;BME280;64294;49.176;16.626;2023-02-13T07:10:36;101367.91;;;3.93;97.54
75681;BME280;64294;49.176;16.626;2023-02-13T07:13:02;101373.25;;;4.01;97.56
75681;BME280;64294;49.176;16.626;2023-02-13T07:15:27;101376.03;;;4.01;97.28
75681;BME280;64294;49.176;16.626;2023-02-13T07:17:57;101379.63;;;4.14;96.74
75681;BME280;64294;49.176;16.626;2023-02-13T07:20:24;101378.19;;;4.09;96.82
75681;BME280;64294;49.176;16.626;2023-02-13T07:22:50;101376.59;;;4.08;96.54
75681;BME280;64294;49.176;16.626;2023-02-13T07:25:15;101381.28;;;4.11;96.56
75681;BME280;64294;49.176;16.626;2023-02-13T07:27:41;101376.84;;;4.14;96.28
75681;BME280;64294;49.176;16.626;2023-02-13T07:30:06;101379.28;;;4.12;95.96
75681;BME280;64294;49.176;16.626;2023-02-13T07:32:32;101377.19;;;4.16;96.00
75681;BME280;64294;49.176;16.626;2023-02-13T07:34:57;101378.28;;;4.18;95.26
75681;BME280;64294;49.176;16.626;2023-02-13T07:37:23;101382.53;;;4.23;95.71
75681;BME280;64294;49.176;16.626;2023-02-13T07:39:48;101384.88;;;4.37;94.79
75681;BME280;64294;49.176;16.626;2023-02-13T07:42:14;101391.13;;;4.41;94.85
75681;BME280;64294;49.176;16.626;2023-02-13T07:44:39;101390.91;;;4.48;94.39
75681;BME280;64294;49.176;16.626;2023-02-13T07:47:05;101391.00;;;4.57;93.54
75681;BME280;64294;49.176;16.626;2023-02-13T07:49:30;101395.03;;;4.56;94.14
75681;BME280;64294;49.176;16.626;2023-02-13T07:51:56;101385.66;;;4.63;93.72
75681;BME280;64294;49.176;16.626;2023-02-13T07:54:27;101392.56;;;4.71;93.44
75681;BME280;64294;49.176;16.626;2023-02-13T07:56:53;101390.91;;;4.74;92.98
75681;BME280;64294;49.176;16.626;2023-02-13T07:59:18;101392.56;;;4.84;92.98
75681;BME280;64294;49.176;16.626;2023-02-13T08:01:44;101389.78;;;4.84;93.39
75681;BME280;64294;49.176;16.626;2023-02-13T08:04:09;101393.44;;;4.94;92.57
75681;BME280;64294;49.176;16.626;2023-02-13T08:06:38;101390.31;;;5.04;92.46
75681;BME280;64294;49.176;16.626;2023-02-13T08:09:05;101385.41;;;4.96;92.31
75681;BME280;64294;49.176;16.626;2023-02-13T08:11:51;101390.31;;;5.04;92.39
75681;BME280;64294;49.176;16.626;2023-02-13T08:14:22;101383.91;;;5.16;91.41
75681;BME280;64294;49.176;16.626;2023-02-13T08:16:48;101391.16;;;5.27;91.21
75681;BME280;64294;49.176;16.626;2023-02-13T08:19:16;101387.81;;;5.54;90.01
75681;BME280;64294;49.176;16.626;2023-02-13T08:21:42;101388.56;;;5.54;89.37
75681;BME280;64294;49.176;16.626;2023-02-13T08:24:08;101383.09;;;7.64;81.99
75681;BME280;64294;49.176;16.626;2023-02-13T08:26:35;101369.31;;;12.04;63.99
75681;BME280;64294;49.176;16.626;2023-02-13T08:29:00;101375.03;;;16.33;47.40
75681;BME280;64294;49.176;16.626;2023-02-13T08:31:26;101386.63;;;18.77;39.54
75681;BME280;64294;49.176;16.626;2023-02-13T08:33:52;101390.31;;;17.76;39.86
75681;BME280;64294;49.176;16.626;2023-02-13T08:36:17;101398.59;;;16.58;43.01
75681;BME280;64294;49.176;16.626;2023-02-13T08:38:46;101396.53;;;15.29;45.58
75681;BME280;64294;49.176;16.626;2023-02-13T08:41:12;101399.09;;;13.17;51.00
75681;BME280;64294;49.176;16.626;2023-02-13T08:43:39;101395.44;;;12.05;55.25
75681;BME280;64294;49.176;16.626;2023-02-13T08:46:05;101398.41;;;11.29;57.36
75681;BME280;64294;49.176;16.626;2023-02-13T08:48:33;101404.47;;;10.87;58.71
75681;BME280;64294;49.176;16.626;2023-02-13T08:50:58;101400.53;;;10.20;62.68
75681;BME280;64294;49.176;16.626;2023-02-13T08:53:23;101392.22;;;9.96;63.86
75681;BME280;64294;49.176;16.626;2023-02-13T08:55:56;101394.34;;;9.86;63.95
75681;BME280;64294;49.176;16.626;2023-02-13T08:58:25;101395.38;;;9.35;65.09
75681;BME280;64294;49.176;16.626;2023-02-13T09:00:50;101392.41;;;9.15;65.75
75681;BME280;64294;49.176;16.626;2023-02-13T09:03:19;101400.47;;;9.22;66.13
75681;BME280;64294;49.176;16.626;2023-02-13T09:05:44;101404.63;;;9.03;66.87
75681;BME280;64294;49.176;16.626;2023-02-13T09:08:12;101396.88;;;8.98;66.80
75681;BME280;64294;49.176;16.626;2023-02-13T09:10:38;101391.66;;;8.82;67.51
75681;BME280;64294;49.176;16.626;2023-02-13T09:13:07;101390.50;;;8.55;68.93
75681;BME280;64294;49.176;16.626;2023-02-13T09:15:32;101381.88;;;8.77;68.36
75681;BME280;64294;49.176;16.626;2023-02-13T09:17:58;101393.97;;;9.16;67.42
75681;BME280;64294;49.176;16.626;2023-02-13T09:20:24;101390.41;;;9.54;65.78
75681;BME280;64294;49.176;16.626;2023-02-13T09:22:54;101393.91;;;9.64;65.25
75681;BME280;64294;49.176;16.626;2023-02-13T09:25:19;101388.50;;;9.75;64.30
75681;BME280;64294;49.176;16.626;2023-02-13T09:27:45;101386.16;;;9.59;64.53
75681;BME280;64294;49.176;16.626;2023-02-13T09:30:11;101389.84;;;9.65;63.37
75681;BME280;64294;49.176;16.626;2023-02-13T09:32:42;101392.56;;;9.74;63.39
75681;BME280;64294;49.176;16.626;2023-02-13T09:35:07;101391.44;;;9.95;61.67
75681;BME280;64294;49.176;16.626;2023-02-13T09:37:33;101396.84;;;9.84;62.08
75681;BME280;64294;49.176;16.626;2023-02-13T09:39:58;101386.22;;;9.88;61.80
75681;BME280;64294;49.176;16.626;2023-02-13T09:42:28;101394.13;;;9.75;62.39
75681;BME280;64294;49.176;16.626;2023-02-13T09:44:59;101386.41;;;9.99;61.88
75681;BME280;64294;49.176;16.626;2023-02-13T09:50:06;101380.75;;;9.70;61.29
75681;BME280;64294;49.176;16.626;2023-02-13T09:52:37;101377.56;;;9.77;61.51
75681;BME280;64294;49.176;16.626;2023-02-13T09:55:20;101375.41;;;10.25;61.17
75681;BME280;64294;49.176;16.626;2023-02-13T10:00:34;101371.28;;;10.91;58.48
75681;BME280;64294;49.176;16.626;2023-02-13T10:03:25;101367.13;;;10.51;59.31
75681;BME280;64294;49.176;16.626;2023-02-13T10:06:13;101361.63;;;10.42;60.31
75681;BME280;64294;49.176;16.626;2023-02-13T10:08:52;101364.00;;;10.20;59.60
75681;BME280;64294;49.176;16.626;2023-02-13T10:11:35;101367.50;;;10.15;60.62
75681;BME280;64294;49.176;16.626;2023-02-13T10:14:18;101373.72;;;10.48;58.40
75681;BME280;64294;49.176;16.626;2023-02-13T10:16:57;101362.63;;;10.59;57.28
75681;BME280;64294;49.176;16.626;2023-02-13T10:22:04;101370.44;;;10.35;58.78
75681;BME280;64294;49.176;16.626;2023-02-13T10:24:38;101371.41;;;10.47;59.26
75681;BME280;64294;49.176;16.626;2023-02-13T10:27:19;101370.16;;;10.33;59.18
75681;BME280;64294;49.176;16.626;2023-02-13T10:38:14;101376.91;;;9.97;60.75
75681;BME280;64294;49.176;16.626;2023-02-13T10:46:45;101360.31;;;9.84;60.00
75681;BME280;64294;49.176;16.626;2023-02-13T10:55:27;101345.41;;;9.78;60.53
75681;BME280;64294;49.176;16.626;2023-02-13T11:02:58;101334.75;;;9.82;59.90
75681;BME280;64294;49.176;16.626;2023-02-13T11:07:55;101328.28;;;9.76;59.32
75681;BME280;64294;49.176;16.626;2023-02-13T11:10:23;101336.22;;;9.92;57.69
75681;BME280;64294;49.176;16.626;2023-02-13T11:12:49;101333.69;;;9.80;56.28
75681;BME280;64294;49.176;16.626;2023-02-13T11:15:32;101337.22;;;9.89;56.50
75681;BME280;64294;49.176;16.626;2023-02-13T11:18:00;101332.13;;;9.64;56.93
75681;BME280;64294;49.176;16.626;2023-02-13T11:20:40;101340.38;;;9.97;56.56
75681;BME280;64294;49.176;16.626;2023-02-13T11:28:28;101327.88;;;9.83;56.83
75681;BME280;64294;49.176;16.626;2023-02-13T11:31:18;101319.00;;;9.70;56.70
75681;BME280;64294;49.176;16.626;2023-02-13T11:33:48;101335.63;;;9.59;57.28
75681;BME280;64294;49.176;16.626;2023-02-13T11:36:24;101331.97;;;9.82;57.58
75681;BME280;64294;49.176;16.626;2023-02-13T11:39:06;101334.75;;;9.82;57.43
75681;BME280;64294;49.176;16.626;2023-02-13T11:41:43;101330.97;;;9.85;57.20
75681;BME280;64294;49.176;16.626;2023-02-13T11:44:25;101335.66;;;9.88;56.51
75681;BME280;64294;49.176;16.626;2023-02-13T11:46:56;101331.47;;;10.13;55.81
75681;BME280;64294;49.176;16.626;2023-02-13T11:49:23;101336.03;;;10.11;56.45
75681;BME280;64294;49.176;16.626;2023-02-13T11:52:02;101334.59;;;10.30;55.69
75681;BME280;64294;49.176;16.626;2023-02-13T11:59:49;101336.81;;;9.96;58.85
75681;BME280;64294;49.176;16.626;2023-02-13T12:02:23;101331.66;;;9.65;59.06
75681;BME280;64294;49.176;16.626;2023-02-13T12:04:52;101330.59;;;9.63;60.34
75681;BME280;64294;49.176;16.626;2023-02-13T12:07:28;101334.19;;;9.78;60.24
75681;BME280;64294;49.176;16.626;2023-02-13T12:09:59;101327.78;;;9.63;60.70
75681;BME280;64294;49.176;16.626;2023-02-13T12:12:31;101328.47;;;9.58;60.71
75681;BME280;64294;49.176;16.626;2023-02-13T12:15:01;101322.91;;;9.34;61.84
75681;BME280;64294;49.176;16.626;2023-02-13T12:17:31;101320.75;;;9.29;60.98
75681;BME280;64294;49.176;16.626;2023-02-13T12:19:58;101310.63;;;9.31;61.78
75681;BME280;64294;49.176;16.626;2023-02-13T12:22:46;101311.06;;;9.15;61.85
75681;BME280;64294;49.176;16.626;2023-02-13T12:25:47;101305.53;;;9.21;61.58
75681;BME280;64294;49.176;16.626;2023-02-13T12:28:24;101299.31;;;9.02;62.14
75681;BME280;64294;49.176;16.626;2023-02-13T12:31:17;101302.09;;;9.02;62.90
75681;BME280;64294;49.176;16.626;2023-02-13T12:33:57;101298.94;;;8.85;63.64
75681;BME280;64294;49.176;16.626;2023-02-13T12:42:24;101279.31;;;8.85;63.23
75681;BME280;64294;49.176;16.626;2023-02-13T12:45:15;101279.13;;;8.89;62.83
75681;BME280;64294;49.176;16.626;2023-02-13T12:48:27;101276.81;;;8.87;63.60
75681;BME280;64294;49.176;16.626;2023-02-13T12:59:26;101280.19;;;8.76;62.79
75681;BME280;64294;49.176;16.626;2023-02-13T13:13:08;101274.31;;;8.65;62.08
75681;BME280;64294;49.176;16.626;2023-02-13T13:26:56;101279.03;;;8.26;63.94
75681;BME280;64294;49.176;16.626;2023-02-13T13:29:25;101278.75;;;8.15;64.35
75681;BME280;64294;49.176;16.626;2023-02-13T13:32:00;101279.81;;;8.17;64.64
75681;BME280;64294;49.176;16.626;2023-02-13T13:34:27;101284.63;;;8.26;66.19
75681;BME280;64294;49.176;16.626;2023-02-13T13:42:29;101275.16;;;8.57;68.40
75681;BME280;64294;49.176;16.626;2023-02-13T13:48:09;101264.94;;;8.68;65.88
75681;BME280;64294;49.176;16.626;2023-02-13T13:50:40;101271.34;;;8.93;68.04
75681;BME280;64294;49.176;16.626;2023-02-13T13:53:13;101265.34;;;9.00;65.84
75681;BME280;64294;49.176;16.626;2023-02-13T14:03:47;101277.91;;;8.66;65.29
75681;BME280;64294;49.176;16.626;2023-02-13T14:06:18;101272.09;;;8.69;65.67
75681;BME280;64294;49.176;16.626;2023-02-13T14:11:32;101269.47;;;8.42;64.62
75681;BME280;64294;49.176;16.626;2023-02-13T14:13:58;101259.13;;;8.24;64.62
75681;BME280;64294;49.176;16.626;2023-02-13T14:16:43;101262.97;;;8.27;64.89
75681;BME280;64294;49.176;16.626;2023-02-13T14:19:28;101258.94;;;8.28;64.29
75681;BME280;64294;49.176;16.626;2023-02-13T14:25:22;101255.84;;;8.26;64.39
75681;BME280;64294;49.176;16.626;2023-02-13T14:27:59;101252.13;;;8.19;65.14
75681;BME280;64294;49.176;16.626;2023-02-13T14:30:32;101249.84;;;8.09;65.30
75681;BME280;64294;49.176;16.626;2023-02-13T14:33:02;101258.38;;;8.14;64.91
75681;BME280;64294;49.176;16.626;2023-02-13T14:35:31;101254.31;;;8.15;64.57
75681;BME280;64294;49.176;16.626;2023-02-13T14:37:59;101257.75;;;8.19;64.42
75681;BME280;64294;49.176;16.626;2023-02-13T14:46:06;101255.94;;;7.98;65.10
75681;BME280;64294;49.176;16.626;2023-02-13T14:48:36;101255.63;;;7.96;64.94
75681;BME280;64294;49.176;16.626;2023-02-13T14:51:05;101254.13;;;7.86;65.48
75681;BME280;64294;49.176;16.626;2023-02-13T14:53:51;101251.66;;;7.79;65.84
75681;BME280;64294;49.176;16.626;2023-02-13T14:56:20;101245.94;;;7.73;65.85
75681;BME280;64294;49.176;16.626;2023-02-13T14:59:04;101243.91;;;7.74;65.58
75681;BME280;64294;49.176;16.626;2023-02-13T15:01:36;101244.53;;;7.69;66.74
75681;BME280;64294;49.176;16.626;2023-02-13T15:04:14;101246.09;;;7.70;66.37
75681;BME280;64294;49.176;16.626;2023-02-13T15:06:42;101254.19;;;7.68;66.17
75681;BME280;64294;49.176;16.626;2023-02-13T15:09:31;101253.53;;;7.73;66.28
75681;BME280;64294;49.176;16.626;2023-02-13T15:11:59;101266.63;;;7.67;66.04
75681;BME280;64294;49.176;16.626;2023-02-13T15:14:32;101262.91;;;7.60;66.42
75681;BME280;64294;49.176;16.626;2023-02-13T15:17:05;101262.19;;;7.93;69.72
75681;BME280;64294;49.176;16.626;2023-02-13T15:19:33;101254.69;;;7.99;68.17
75681;BME280;64294;49.176;16.626;2023-02-13T15:22:01;101251.50;;;7.82;66.57
75681;BME280;64294;49.176;16.626;2023-02-13T15:24:51;101239.41;;;7.67;66.08
75681;BME280;64294;49.176;16.626;2023-02-13T15:27:24;101239.25;;;7.62;66.46
75681;BME280;64294;49.176;16.626;2023-02-13T15:32:28;101241.50;;;7.48;67.03
75681;BME280;64294;49.176;16.626;2023-02-13T15:34:56;101243.22;;;7.37;67.44
75681;BME280;64294;49.176;16.626;2023-02-13T15:37:29;101239.81;;;7.33;67.19